createdAt,value
2017-09-30T00:02:35.309Z,95301.53
2017-09-30T00:17:37.281Z,95303.91
2017-09-30T00:32:37.110Z,95294.47
2017-09-30T00:47:34.695Z,95289.75
2017-09-30T01:02:35.426Z,95274.28
2017-09-30T01:17:35.349Z,95262.38
2017-09-30T01:32:36.231Z,95269.06
2017-09-30T01:47:34.946Z,95260.16
2017-09-30T02:02:34.680Z,95252.06
2017-09-30T02:17:36.553Z,95244.99
2017-09-30T02:32:35.046Z,95249.20
2017-09-30T02:47:34.990Z,95239.20
2017-09-30T03:02:34.927Z,95236.94
2017-09-30T03:17:35.918Z,95229.28
2017-09-30T03:32:35.292Z,95222.30
2017-09-30T03:47:35.771Z,95230.39
2017-09-30T04:02:35.141Z,95217.03
2017-09-30T04:17:35.167Z,95204.31
2017-09-30T04:32:34.534Z,95222.71
2017-09-30T04:47:34.712Z,95228.22
2017-09-30T05:02:34.443Z,95226.62
2017-09-30T05:17:34.398Z,95225.05
2017-09-30T05:32:34.836Z,95232.70
2017-09-30T05:47:35.753Z,95235.45
2017-09-30T06:02:34.749Z,95230.36
2017-09-30T06:17:34.653Z,95231.88
2017-09-30T06:32:35.072Z,95234.10
2017-09-30T06:47:37.033Z,95238.30
2017-09-30T07:02:34.971Z,95248.13
2017-09-30T07:17:36.890Z,95246.88
2017-09-30T07:32:35.328Z,95241.13
2017-09-30T07:47:35.262Z,95237.47
2017-09-30T08:02:35.206Z,95225.53
2017-09-30T08:17:35.215Z,95226.24
2017-09-30T08:32:34.625Z,95213.76
2017-09-30T08:47:34.575Z,95215.78
2017-09-30T09:02:34.592Z,95197.09
2017-09-30T09:17:34.516Z,95191.59
2017-09-30T09:32:34.912Z,95181.19
2017-09-30T09:47:37.219Z,95185.62
2017-09-30T10:02:34.882Z,95180.85
2017-09-30T10:17:34.782Z,95173.56
2017-09-30T10:32:35.269Z,95175.50
2017-09-30T10:47:34.658Z,95154.84
2017-09-30T11:02:35.056Z,95142.68
2017-09-30T11:17:35.091Z,95124.08
2017-09-30T11:32:34.522Z,95108.08
2017-09-30T11:47:34.427Z,95104.12
2017-09-30T12:02:34.366Z,95108.06
2017-09-30T12:17:34.345Z,95098.95
2017-09-30T12:32:35.821Z,95103.18
2017-09-30T12:47:34.728Z,95100.98
2017-09-30T13:02:34.671Z,95094.97
2017-09-30T13:17:34.602Z,95085.42
2017-09-30T13:32:35.048Z,95084.36
2017-09-30T13:47:34.982Z,95080.41
2017-09-30T14:02:35.739Z,95084.58
2017-09-30T14:17:34.918Z,95093.16
2017-09-30T14:32:34.829Z,95097.17
2017-09-30T14:47:37.034Z,95113.84
2017-09-30T15:02:34.693Z,95127.87
2017-09-30T15:17:34.682Z,95148.69
2017-09-30T15:32:34.606Z,95143.81
2017-09-30T15:47:34.071Z,95148.41
2017-09-30T16:02:34.537Z,95152.70
2017-09-30T16:17:36.200Z,95163.73
2017-09-30T16:32:34.949Z,95162.38
2017-09-30T16:47:36.863Z,95186.03
2017-09-30T17:02:34.774Z,95189.27
2017-09-30T17:17:34.766Z,95200.05
2017-09-30T17:32:38.593Z,95192.20
2017-09-30T17:47:34.671Z,95202.74
2017-09-30T18:02:35.143Z,95214.18
2017-09-30T18:17:35.126Z,95208.98
2017-09-30T18:32:34.277Z,95208.71
2017-09-30T18:47:33.946Z,95207.31
2017-09-30T19:02:34.411Z,95208.77
2017-09-30T19:17:34.399Z,95202.65
2017-09-30T19:32:36.793Z,95209.51
2017-09-30T19:47:34.784Z,95201.44
2017-09-30T20:02:36.715Z,95208.39
2017-09-30T20:17:34.689Z,95209.60
2017-09-30T20:32:35.098Z,95204.76
2017-09-30T20:47:34.993Z,95204.48
2017-09-30T21:02:37.009Z,95212.06
2017-09-30T21:17:36.968Z,95203.33
2017-09-30T21:32:34.365Z,95207.37
2017-09-30T21:47:34.323Z,95202.38
2017-09-30T22:02:34.235Z,95200.02
2017-09-30T22:17:35.184Z,95193.52
2017-09-30T22:32:34.649Z,95182.39
2017-09-30T22:47:34.659Z,95176.11
2017-09-30T23:02:34.538Z,95179.08
2017-09-30T23:17:34.508Z,95165.41
2017-09-30T23:32:34.905Z,95166.91
2017-09-30T23:47:34.877Z,95165.69
